createdAt,value
2022-09-10T00:01:27.515Z,2.33
2022-09-10T00:03:54.845Z,2.20
2022-09-10T00:06:27.493Z,2.30
2022-09-10T00:08:58.191Z,2.20
2022-09-10T00:11:26.513Z,2.20
2022-09-10T00:13:53.217Z,2.50
2022-09-10T00:16:20.142Z,2.30
2022-09-10T00:18:47.775Z,2.30
2022-09-10T00:21:18.223Z,2.10
2022-09-10T00:23:45.750Z,2.17
2022-09-10T00:26:19.613Z,2.37
2022-09-10T00:28:46.374Z,2.33
2022-09-10T00:31:13.440Z,2.23
2022-09-10T00:33:41.748Z,2.43
2022-09-10T00:36:20.313Z,2.20
2022-09-10T00:38:47.521Z,2.23
2022-09-10T00:41:15.128Z,2.20
2022-09-10T00:43:53.323Z,2.30
2022-09-10T00:46:43.487Z,2.50
2022-09-10T00:49:13.041Z,2.23
2022-09-10T00:51:40.517Z,2.30
2022-09-10T00:54:07.596Z,2.10
2022-09-10T00:56:34.901Z,2.20
2022-09-10T00:59:03.280Z,2.53
2022-09-10T01:01:31.170Z,2.50
2022-09-10T01:03:58.794Z,2.13
2022-09-10T01:06:25.386Z,2.23
2022-09-10T01:08:52.492Z,2.50
2022-09-10T01:11:34.564Z,2.67
2022-09-10T01:14:11.782Z,2.50
2022-09-10T01:16:47.852Z,2.57
2022-09-10T01:19:34.500Z,2.57
2022-09-10T01:22:13.832Z,2.67
2022-09-10T01:24:55.845Z,2.27
2022-09-10T01:27:26.307Z,2.53
2022-09-10T01:29:59.951Z,2.57
2022-09-10T01:32:44.336Z,2.90
2022-09-10T01:35:19.516Z,2.30
2022-09-10T01:37:49.937Z,2.30
2022-09-10T01:40:18.048Z,2.57
2022-09-10T01:42:45.671Z,2.53
2022-09-10T01:45:15.864Z,2.50
2022-09-10T01:48:09.093Z,2.50
2022-09-10T01:50:48.592Z,2.33
2022-09-10T01:53:47.845Z,2.40
2022-09-10T01:56:28.508Z,2.87
2022-09-10T01:59:04.228Z,2.23
2022-09-10T02:01:47.766Z,2.37
2022-09-10T02:04:15.305Z,2.33
2022-09-10T02:06:44.910Z,2.83
2022-09-10T02:09:13.494Z,2.70
2022-09-10T02:11:51.973Z,2.60
2022-09-10T02:14:49.672Z,2.67
2022-09-10T02:17:26.251Z,2.27
2022-09-10T02:19:53.927Z,2.70
2022-09-10T02:22:22.035Z,2.50
2022-09-10T02:24:48.667Z,2.70
2022-09-10T02:27:15.277Z,2.30
2022-09-10T02:29:42.201Z,1.83
2022-09-10T02:32:09.687Z,2.30
2022-09-10T02:34:36.567Z,2.50
2022-09-10T02:37:03.708Z,2.47
2022-09-10T02:39:30.918Z,2.40
2022-09-10T02:41:58.736Z,2.60
2022-09-10T02:44:28.016Z,2.70
2022-09-10T02:46:55.502Z,2.40
2022-09-10T02:49:22.124Z,2.00
2022-09-10T02:51:50.522Z,2.10
2022-09-10T02:54:19.948Z,2.70
2022-09-10T02:56:49.940Z,2.37
2022-09-10T02:59:18.123Z,2.40
2022-09-10T03:01:44.748Z,2.47
2022-09-10T03:04:11.739Z,2.40
2022-09-10T03:06:38.275Z,2.30
2022-09-10T03:09:04.909Z,2.30
2022-09-10T03:11:31.669Z,2.63
2022-09-10T03:13:58.832Z,2.90
2022-09-10T03:16:26.422Z,2.20
2022-09-10T03:18:53.011Z,2.30
2022-09-10T03:21:22.347Z,2.53
2022-09-10T03:23:50.734Z,2.40
2022-09-10T03:26:25.209Z,2.57
2022-09-10T03:28:52.649Z,2.40
2022-09-10T03:31:21.744Z,2.50
2022-09-10T03:33:50.663Z,2.30
2022-09-10T03:36:18.276Z,2.20
2022-09-10T03:38:47.301Z,2.43
2022-09-10T03:41:14.387Z,2.77
2022-09-10T03:43:41.351Z,2.50
2022-09-10T03:46:12.175Z,2.33
2022-09-10T03:48:43.562Z,1.97
2022-09-10T03:51:10.931Z,2.47
2022-09-10T03:53:38.661Z,2.60
2022-09-10T03:56:06.820Z,2.60
2022-09-10T03:58:35.881Z,2.30
2022-09-10T04:01:03.648Z,2.33
2022-09-10T04:03:32.913Z,2.63
2022-09-10T04:05:59.452Z,2.33
2022-09-10T04:08:26.062Z,2.50
2022-09-10T04:10:54.637Z,2.47
2022-09-10T04:13:23.080Z,2.17
2022-09-10T04:15:49.722Z,2.30
2022-09-10T04:18:16.524Z,2.57
2022-09-10T04:20:47.231Z,2.67
2022-09-10T04:23:16.152Z,2.60
2022-09-10T04:25:43.517Z,2.40
2022-09-10T04:28:11.392Z,2.70
2022-09-10T04:30:38.463Z,2.40
2022-09-10T04:33:05.049Z,2.30
2022-09-10T04:35:32.856Z,2.30
2022-09-10T04:38:01.763Z,2.47
2022-09-10T04:40:28.423Z,2.50
2022-09-10T04:42:55.068Z,2.70
2022-09-10T04:45:22.007Z,2.40
2022-09-10T04:47:49.499Z,2.33
2022-09-10T04:50:16.262Z,2.13
2022-09-10T04:53:02.825Z,2.20
2022-09-10T04:55:31.229Z,2.60
2022-09-10T04:57:57.910Z,2.40
2022-09-10T05:00:25.106Z,2.40
2022-09-10T05:02:51.883Z,2.40
2022-09-10T05:05:18.696Z,2.30
2022-09-10T05:07:45.315Z,3.00
2022-09-10T05:10:11.931Z,2.20
2022-09-10T05:12:40.437Z,2.20
2022-09-10T05:15:07.859Z,2.70
2022-09-10T05:17:34.484Z,2.50
2022-09-10T05:20:01.926Z,2.50
2022-09-10T05:22:37.177Z,2.43
2022-09-10T05:25:07.210Z,2.53
2022-09-10T05:27:34.569Z,2.43
2022-09-10T05:30:02.221Z,2.70
2022-09-10T05:32:30.152Z,2.27
2022-09-10T05:34:56.855Z,2.40
2022-09-10T05:37:23.714Z,2.40
2022-09-10T05:39:50.427Z,2.33
2022-09-10T05:42:18.706Z,2.47
2022-09-10T05:44:45.378Z,2.77
2022-09-10T05:47:11.939Z,2.53
2022-09-10T05:49:39.004Z,2.30
2022-09-10T05:52:05.576Z,2.27
2022-09-10T05:54:33.271Z,2.23
2022-09-10T05:57:00.626Z,2.40
2022-09-10T05:59:29.899Z,2.40
2022-09-10T06:01:56.951Z,2.20
2022-09-10T06:04:25.110Z,2.30
2022-09-10T06:06:52.283Z,1.90
2022-09-10T06:09:19.391Z,2.20
2022-09-10T06:12:06.671Z,1.90
2022-09-10T06:14:34.303Z,1.60
2022-09-10T06:17:01.833Z,2.13
2022-09-10T06:19:30.459Z,2.00
2022-09-10T06:21:57.571Z,1.93
2022-09-10T06:24:25.881Z,2.07
2022-09-10T06:26:55.404Z,2.27
2022-09-10T06:29:23.836Z,2.10
2022-09-10T06:31:50.902Z,2.20
2022-09-10T06:34:18.976Z,2.00
2022-09-10T06:36:49.445Z,1.87
2022-09-10T06:39:17.458Z,1.80
2022-09-10T06:41:54.899Z,1.90
2022-09-10T06:44:50.379Z,2.10
2022-09-10T06:48:36.732Z,1.80
2022-09-10T06:50:37.612Z,1.93
2022-09-10T06:53:04.538Z,2.23
2022-09-10T06:55:31.385Z,2.30
2022-09-10T06:57:59.927Z,2.40
2022-09-10T07:00:28.054Z,2.27
2022-09-10T07:02:55.188Z,2.20
2022-09-10T07:05:23.530Z,2.30
2022-09-10T07:07:51.484Z,2.20
2022-09-10T07:10:18.224Z,2.03
2022-09-10T07:12:44.845Z,2.33
2022-09-10T07:15:12.514Z,2.17
2022-09-10T07:17:39.184Z,2.10
2022-09-10T07:20:07.555Z,1.87
2022-09-10T07:22:44.497Z,1.97
2022-09-10T07:25:13.184Z,1.93
2022-09-10T07:27:52.152Z,2.00
2022-09-10T07:30:19.092Z,1.70
2022-09-10T07:32:46.608Z,2.00
2022-09-10T07:35:15.566Z,1.90
2022-09-10T07:37:42.144Z,1.93
2022-09-10T07:40:09.273Z,1.80
2022-09-10T07:42:37.341Z,1.60
2022-09-10T07:45:05.535Z,1.80
2022-09-10T07:47:33.340Z,1.70
2022-09-10T07:50:00.582Z,1.53
2022-09-10T07:52:27.629Z,1.60
2022-09-10T07:54:56.154Z,1.73
2022-09-10T07:57:22.846Z,1.60
2022-09-10T07:59:50.443Z,1.37
2022-09-10T08:02:22.065Z,1.50
2022-09-10T08:04:54.901Z,1.60
2022-09-10T08:07:21.895Z,1.57
2022-09-10T08:09:49.097Z,1.50
2022-09-10T08:12:17.888Z,1.43
2022-09-10T08:14:45.663Z,1.70
2022-09-10T08:17:12.941Z,1.70
2022-09-10T08:19:42.813Z,1.60
2022-09-10T08:22:13.695Z,1.97
2022-09-10T08:24:48.668Z,1.60
2022-09-10T08:27:16.895Z,1.60
2022-09-10T08:29:43.864Z,1.67
2022-09-10T08:32:13.089Z,1.50
2022-09-10T08:34:40.748Z,1.73
2022-09-10T08:37:09.322Z,1.60
2022-09-10T08:39:37.377Z,1.50
2022-09-10T08:42:15.301Z,1.73
2022-09-10T08:44:49.801Z,1.60
2022-09-10T08:47:45.219Z,1.40
2022-09-10T08:50:36.328Z,1.37
2022-09-10T08:53:26.533Z,1.40
2022-09-10T08:55:58.442Z,1.33
2022-09-10T08:58:46.888Z,1.20
2022-09-10T09:01:34.705Z,1.40
2022-09-10T09:04:09.921Z,1.13
2022-09-10T09:06:41.571Z,1.20
2022-09-10T09:09:14.805Z,1.07
2022-09-10T09:11:48.211Z,1.13
2022-09-10T09:14:29.880Z,1.37
2022-09-10T09:17:23.561Z,1.20
2022-09-10T09:20:29.024Z,1.13
2022-09-10T09:23:14.612Z,1.10
2022-09-10T09:26:10.707Z,1.20
2022-09-10T09:28:46.514Z,1.10
2022-09-10T09:31:25.830Z,1.40
2022-09-10T09:34:00.340Z,1.20
2022-09-10T09:36:32.075Z,1.30
2022-09-10T09:38:58.687Z,1.33
2022-09-10T09:41:35.744Z,1.27
2022-09-10T09:44:14.315Z,1.00
2022-09-10T09:46:40.855Z,1.00
2022-09-10T09:49:11.821Z,1.00
2022-09-10T09:51:38.406Z,1.10
2022-09-10T09:57:15.263Z,1.40
2022-09-10T09:59:42.032Z,1.10
2022-09-10T10:02:14.313Z,1.30
2022-09-10T10:05:09.316Z,1.07
2022-09-10T10:07:36.433Z,1.20
2022-09-10T10:10:07.887Z,1.13
2022-09-10T10:12:36.487Z,0.93
2022-09-10T10:15:03.363Z,1.00
2022-09-10T10:17:34.030Z,1.07
2022-09-10T10:20:18.689Z,1.00
2022-09-10T10:22:46.486Z,0.83
2022-09-10T10:25:42.941Z,0.90
2022-09-10T10:28:22.136Z,0.70
2022-09-10T10:30:53.591Z,0.90
2022-09-10T10:33:26.816Z,0.93
2022-09-10T10:36:23.491Z,1.00
2022-09-10T10:38:58.750Z,0.80
2022-09-10T10:41:43.615Z,1.00
2022-09-10T10:44:37.942Z,0.90
2022-09-10T10:47:17.859Z,0.90
2022-09-10T10:50:05.551Z,1.10
2022-09-10T10:52:40.731Z,0.90
2022-09-10T10:55:17.270Z,0.90
2022-09-10T10:58:31.889Z,1.33
2022-09-10T11:01:05.995Z,0.90
2022-09-10T11:03:40.075Z,0.87
2022-09-10T11:06:14.878Z,0.83
2022-09-10T11:08:55.204Z,0.77
2022-09-10T11:11:33.553Z,1.00
2022-09-10T11:14:27.362Z,0.80
2022-09-10T11:16:58.950Z,1.00
2022-09-10T11:19:38.333Z,1.00
2022-09-10T11:22:15.415Z,1.07
2022-09-10T11:24:57.874Z,1.10
2022-09-10T11:27:28.706Z,1.20
2022-09-10T11:30:04.514Z,1.07
2022-09-10T11:32:34.687Z,1.30
2022-09-10T11:35:33.526Z,1.17
2022-09-10T11:38:07.848Z,1.20
2022-09-10T11:40:44.679Z,1.03
2022-09-10T11:43:13.602Z,1.10
2022-09-10T11:45:45.793Z,1.10
2022-09-10T11:48:24.612Z,1.00
2022-09-10T11:50:56.173Z,0.97
2022-09-10T11:53:24.842Z,1.00
2022-09-10T11:55:51.330Z,0.90
2022-09-10T11:58:34.779Z,0.80
2022-09-10T12:01:11.981Z,0.70
2022-09-10T12:04:22.201Z,0.90
2022-09-10T12:07:04.327Z,0.80
2022-09-10T12:09:35.885Z,0.90
2022-09-10T12:12:15.225Z,1.10
2022-09-10T12:14:42.146Z,1.20
2022-09-10T12:17:19.890Z,1.60
2022-09-10T12:19:50.456Z,1.13
2022-09-10T12:22:29.826Z,1.10
2022-09-10T12:25:02.094Z,1.40
2022-09-10T12:27:49.022Z,3.00
2022-09-10T12:30:24.832Z,6.97
2022-09-10T12:32:53.411Z,3.43
2022-09-10T12:35:35.424Z,1.60
2022-09-10T12:38:42.916Z,1.70
2022-09-10T12:41:36.139Z,1.60
2022-09-10T12:44:04.908Z,1.70
2022-09-10T12:46:31.700Z,1.70
2022-09-10T12:49:01.313Z,1.70
2022-09-10T12:51:40.965Z,1.80
2022-09-10T12:54:20.285Z,1.93
2022-09-10T12:57:05.294Z,1.70
2022-09-10T12:59:40.764Z,1.70
2022-09-10T13:02:20.374Z,1.73
2022-09-10T13:04:54.293Z,2.20
2022-09-10T13:07:23.843Z,2.17
2022-09-10T13:10:00.242Z,1.73
2022-09-10T13:12:27.378Z,1.70
2022-09-10T13:14:57.495Z,1.60
2022-09-10T13:17:40.865Z,1.73
2022-09-10T13:20:35.492Z,1.70
2022-09-10T13:23:09.144Z,1.70
2022-09-10T13:25:37.044Z,1.50
2022-09-10T13:28:29.867Z,1.70
2022-09-10T13:31:06.985Z,2.20
2022-09-10T13:33:51.823Z,2.30
2022-09-10T13:36:43.200Z,1.80
2022-09-10T13:39:46.219Z,1.47
2022-09-10T13:42:43.166Z,1.70
2022-09-10T13:45:16.540Z,1.50
2022-09-10T13:47:49.450Z,1.40
2022-09-10T13:50:21.195Z,1.70
2022-09-10T13:52:49.812Z,1.60
2022-09-10T13:55:20.236Z,1.70
2022-09-10T13:57:49.600Z,1.50
2022-09-10T14:00:24.851Z,1.30
2022-09-10T14:02:56.970Z,1.37
2022-09-10T14:05:36.778Z,1.30
2022-09-10T14:08:11.961Z,1.43
2022-09-10T14:10:53.047Z,1.33
2022-09-10T14:13:28.434Z,1.47
2022-09-10T14:15:56.906Z,1.50
2022-09-10T14:18:31.983Z,1.60
2022-09-10T14:20:59.854Z,1.83
2022-09-10T14:23:26.717Z,2.13
2022-09-10T14:26:09.877Z,1.90
2022-09-10T14:28:49.249Z,2.30
2022-09-10T14:31:26.577Z,2.40
2022-09-10T14:33:55.459Z,2.20
2022-09-10T14:36:23.423Z,2.10
2022-09-10T14:39:19.901Z,2.27
2022-09-10T14:41:46.990Z,2.20
2022-09-10T14:44:22.487Z,2.00
2022-09-10T14:46:57.492Z,2.20
2022-09-10T14:49:31.831Z,2.23
2022-09-10T14:51:59.143Z,2.60
2022-09-10T14:54:26.476Z,2.43
2022-09-10T14:56:54.279Z,2.20
2022-09-10T14:59:34.030Z,2.23
2022-09-10T15:02:01.686Z,2.50
2022-09-10T15:04:30.012Z,2.20
2022-09-10T15:07:00.595Z,2.20
2022-09-10T15:09:28.690Z,2.10
2022-09-10T15:12:03.763Z,2.10
2022-09-10T15:14:32.365Z,2.03
2022-09-10T15:16:59.463Z,1.80
2022-09-10T15:19:26.115Z,1.53
2022-09-10T15:21:52.684Z,1.97
2022-09-10T15:24:21.487Z,2.00
2022-09-10T15:26:48.326Z,1.70
2022-09-10T15:29:15.916Z,1.83
2022-09-10T15:31:43.645Z,1.93
2022-09-10T15:34:10.845Z,1.77
2022-09-10T15:36:38.890Z,2.00
2022-09-10T15:39:11.711Z,1.80
2022-09-10T15:41:43.220Z,2.17
2022-09-10T15:44:10.236Z,1.50
2022-09-10T15:46:40.700Z,2.00
2022-09-10T15:49:08.034Z,1.70
2022-09-10T15:51:34.599Z,2.30
2022-09-10T15:54:04.924Z,1.87
2022-09-10T15:56:31.639Z,1.80
2022-09-10T15:58:58.488Z,1.67
2022-09-10T16:01:28.050Z,1.60
2022-09-10T16:03:56.851Z,1.97
2022-09-10T16:06:31.553Z,1.80
2022-09-10T16:09:03.207Z,1.83
2022-09-10T16:11:31.811Z,1.90
2022-09-10T16:14:04.122Z,1.90
2022-09-10T16:16:31.559Z,2.37
2022-09-10T16:18:58.164Z,2.70
2022-09-10T16:21:32.541Z,3.00
2022-09-10T16:23:59.957Z,2.90
2022-09-10T16:26:31.305Z,2.20
2022-09-10T16:28:59.658Z,1.60
2022-09-10T16:31:34.730Z,1.20
2022-09-10T16:34:04.773Z,1.30
2022-09-10T16:36:37.012Z,1.60
2022-09-10T16:39:06.121Z,1.30
2022-09-10T16:41:33.169Z,1.70
2022-09-10T16:44:00.483Z,1.53
2022-09-10T16:46:28.102Z,1.60
2022-09-10T16:48:55.695Z,1.50
2022-09-10T16:51:24.477Z,1.77
2022-09-10T16:54:02.329Z,1.27
2022-09-10T16:56:33.658Z,1.40
2022-09-10T16:59:00.303Z,1.30
2022-09-10T17:01:27.985Z,1.30
2022-09-10T17:03:54.526Z,1.40
2022-09-10T17:06:24.651Z,1.40
2022-09-10T17:08:53.262Z,1.27
2022-09-10T17:11:20.546Z,2.47
2022-09-10T17:13:47.289Z,1.47
2022-09-10T17:16:30.839Z,1.50
2022-09-10T17:19:09.665Z,1.67
2022-09-10T17:21:38.189Z,1.60
2022-09-10T17:24:06.754Z,1.30
2022-09-10T17:26:34.121Z,1.83
2022-09-10T17:29:03.823Z,1.60
2022-09-10T17:31:31.242Z,1.70
2022-09-10T17:33:58.183Z,1.80
2022-09-10T17:36:25.871Z,2.00
2022-09-10T17:38:53.679Z,3.00
2022-09-10T17:41:21.690Z,2.40
2022-09-10T17:43:48.289Z,3.00
2022-09-10T17:46:18.163Z,4.30
2022-09-10T17:48:45.843Z,5.00
2022-09-10T17:51:17.897Z,4.60
2022-09-10T17:53:44.840Z,3.37
2022-09-10T17:56:13.883Z,2.97
2022-09-10T17:58:41.100Z,2.40
2022-09-10T18:01:11.811Z,2.30
2022-09-10T18:03:39.899Z,1.60
2022-09-10T18:06:11.326Z,1.90
2022-09-10T18:08:38.849Z,1.57
2022-09-10T18:11:10.858Z,2.10
2022-09-10T18:13:37.627Z,2.83
2022-09-10T18:16:06.384Z,6.70
2022-09-10T18:18:36.503Z,8.47
2022-09-10T18:21:18.123Z,6.67
2022-09-10T18:23:45.409Z,4.93
2022-09-10T18:26:16.368Z,3.50
2022-09-10T18:28:44.097Z,3.00
2022-09-10T18:31:11.525Z,3.03
2022-09-10T18:33:40.400Z,3.20
2022-09-10T18:36:15.695Z,3.03
2022-09-10T18:38:42.623Z,3.43
2022-09-10T18:41:19.344Z,2.90
2022-09-10T18:43:46.937Z,2.90
2022-09-10T18:46:14.988Z,2.70
2022-09-10T18:48:42.353Z,2.47
2022-09-10T18:51:10.880Z,2.80
2022-09-10T18:53:38.526Z,2.70
2022-09-10T18:56:10.080Z,3.20
2022-09-10T18:58:37.473Z,3.03
2022-09-10T19:01:12.821Z,2.93
2022-09-10T19:03:42.555Z,2.67
2022-09-10T19:06:15.142Z,2.57
2022-09-10T19:08:47.717Z,2.20
2022-09-10T19:11:17.449Z,2.23
2022-09-10T19:13:51.785Z,2.27
2022-09-10T19:16:19.100Z,2.30
2022-09-10T19:18:51.100Z,2.40
2022-09-10T19:21:20.109Z,3.10
2022-09-10T19:23:48.078Z,3.10
2022-09-10T19:26:14.652Z,2.67
2022-09-10T19:28:42.129Z,2.70
2022-09-10T19:31:10.750Z,3.70
2022-09-10T19:33:37.598Z,3.57
2022-09-10T19:36:06.054Z,3.23
2022-09-10T19:38:37.807Z,2.97
2022-09-10T19:41:21.194Z,6.23
2022-09-10T19:43:49.597Z,10.47
2022-09-10T19:46:17.971Z,6.17
2022-09-10T19:48:46.602Z,3.60
2022-09-10T19:51:20.055Z,3.90
2022-09-10T19:53:47.895Z,10.20
2022-09-10T19:56:20.608Z,7.20
2022-09-10T19:58:49.784Z,5.33
2022-09-10T20:01:33.163Z,8.90
2022-09-10T20:04:01.642Z,7.70
2022-09-10T20:06:29.893Z,5.50
2022-09-10T20:08:57.196Z,8.00
2022-09-10T20:11:32.333Z,11.27
2022-09-10T20:14:03.094Z,12.90
2022-09-10T20:16:29.982Z,14.97
2022-09-10T20:18:56.910Z,15.30
2022-09-10T20:21:28.317Z,16.47
2022-09-10T20:23:56.354Z,16.10
2022-09-10T20:26:25.599Z,15.80
2022-09-10T20:28:57.206Z,19.50
2022-09-10T20:31:25.805Z,19.53
2022-09-10T20:33:56.640Z,20.70
2022-09-10T20:36:25.238Z,20.17
2022-09-10T20:38:53.315Z,17.70
2022-09-10T20:41:20.458Z,16.30
2022-09-10T20:43:51.787Z,15.63
2022-09-10T20:46:20.404Z,14.03
2022-09-10T20:48:49.242Z,11.73
2022-09-10T20:51:17.988Z,11.40
2022-09-10T20:53:45.139Z,10.13
2022-09-10T20:56:14.157Z,9.47
2022-09-10T20:58:41.572Z,8.90
2022-09-10T21:01:13.890Z,9.30
2022-09-10T21:03:41.069Z,9.37
2022-09-10T21:06:08.533Z,8.63
2022-09-10T21:08:36.659Z,9.37
2022-09-10T21:11:12.301Z,9.47
2022-09-10T21:13:44.742Z,7.67
2022-09-10T21:16:19.497Z,6.27
2022-09-10T21:18:52.112Z,6.53
2022-09-10T21:21:22.717Z,8.53
2022-09-10T21:23:54.653Z,10.40
2022-09-10T21:26:26.266Z,11.20
2022-09-10T21:28:55.765Z,12.97
2022-09-10T21:31:23.002Z,12.47
2022-09-10T21:33:50.053Z,12.03
2022-09-10T21:36:18.884Z,12.17
2022-09-10T21:38:53.844Z,14.97
2022-09-10T21:41:26.404Z,14.57
2022-09-10T21:43:52.960Z,15.67
2022-09-10T21:46:23.977Z,13.83
2022-09-10T21:48:50.798Z,12.63
2022-09-10T21:51:19.499Z,10.97
2022-09-10T21:53:46.607Z,9.03
2022-09-10T21:56:15.786Z,8.80
2022-09-10T21:58:43.843Z,7.00
2022-09-10T22:01:12.530Z,7.97
2022-09-10T22:03:39.295Z,9.83
2022-09-10T22:06:14.501Z,9.27
2022-09-10T22:08:43.315Z,11.60
2022-09-10T22:11:16.065Z,10.70
2022-09-10T22:13:43.411Z,11.90
2022-09-10T22:16:12.509Z,11.57
2022-09-10T22:18:39.988Z,11.53
2022-09-10T22:21:07.971Z,11.70
2022-09-10T22:23:36.589Z,10.37
2022-09-10T22:26:08.922Z,9.60
2022-09-10T22:28:36.120Z,9.37
2022-09-10T22:31:23.442Z,10.00
2022-09-10T22:34:07.473Z,9.67
2022-09-10T22:36:36.440Z,10.10
2022-09-10T22:39:06.171Z,10.43
2022-09-10T22:41:34.482Z,10.20
2022-09-10T22:44:01.883Z,12.73
2022-09-10T22:46:29.295Z,17.03
2022-09-10T22:48:56.448Z,17.88
2022-09-10T22:51:25.933Z,16.07
2022-09-10T22:53:53.466Z,13.57
2022-09-10T22:56:26.118Z,11.80
2022-09-10T22:58:54.152Z,8.37
2022-09-10T23:01:23.114Z,6.47
2022-09-10T23:03:50.322Z,5.80
2022-09-10T23:06:20.551Z,5.80
2022-09-10T23:08:50.263Z,5.47
2022-09-10T23:11:21.967Z,4.73
2022-09-10T23:13:54.891Z,4.10
2022-09-10T23:16:28.858Z,4.33
2022-09-10T23:18:57.175Z,3.70
2022-09-10T23:21:25.132Z,3.83
2022-09-10T23:23:56.717Z,3.63
2022-09-10T23:26:24.125Z,3.67
2022-09-10T23:28:51.367Z,3.37
2022-09-10T23:31:19.607Z,3.80
2022-09-10T23:33:54.461Z,3.90
2022-09-10T23:36:21.698Z,3.63
2022-09-10T23:38:48.307Z,4.03
2022-09-10T23:41:16.153Z,3.37
2022-09-10T23:43:43.716Z,3.50
2022-09-10T23:46:11.084Z,3.80
2022-09-10T23:48:37.861Z,3.33
2022-09-10T23:51:06.441Z,4.27
2022-09-10T23:53:33.112Z,3.77
2022-09-10T23:56:00.247Z,3.80
2022-09-10T23:58:26.785Z,3.97
